createdAt,value
2018-10-12T10:15:11.286Z,42.50
2018-10-12T10:17:53.172Z,47.63
2018-10-12T10:20:37.416Z,40.00
2018-10-12T10:23:15.652Z,81.70
2018-10-12T10:25:53.769Z,94.70
2018-10-12T10:28:30.891Z,91.27
2018-10-12T10:31:07.827Z,83.53
2018-10-12T10:33:49.466Z,21.63
2018-10-12T10:36:26.462Z,21.00
2018-10-12T10:39:09.626Z,21.93
2018-10-12T10:41:51.489Z,23.90
2018-10-12T10:44:33.190Z,30.23
2018-10-12T10:47:18.357Z,34.10
2018-10-12T10:49:57.430Z,38.87
2018-10-12T10:52:37.315Z,38.93
2018-10-12T10:55:14.849Z,37.43
2018-10-12T10:57:55.271Z,37.97
2018-10-12T11:00:32.430Z,33.50
2018-10-12T11:03:15.413Z,30.77
2018-10-12T11:05:56.034Z,19.47
2018-10-12T11:08:36.115Z,18.43
2018-10-12T11:11:14.852Z,19.27
2018-10-12T11:13:56.211Z,27.33
2018-10-12T11:16:36.685Z,23.23
2018-10-12T11:19:14.610Z,32.13
2018-10-12T11:21:54.708Z,31.10
2018-10-12T11:24:32.753Z,31.93
2018-10-12T11:27:14.229Z,30.87
2018-10-12T11:29:58.293Z,31.80
2018-10-12T11:32:41.246Z,26.82
2018-10-12T11:35:22.471Z,28.38
2018-10-12T11:38:02.590Z,26.45
2018-10-12T11:40:42.909Z,25.50
2018-10-12T11:43:34.884Z,23.50
2018-10-12T11:46:12.790Z,27.13
2018-10-12T11:48:50.304Z,26.87
2018-10-12T11:51:34.312Z,21.87
2018-10-12T11:54:11.089Z,21.27
2018-10-12T11:56:49.432Z,20.27
2018-10-12T11:59:27.111Z,21.27
2018-10-12T12:02:07.041Z,23.70
2018-10-12T12:04:47.354Z,25.77
2018-10-12T12:07:27.597Z,23.80
2018-10-12T12:10:16.990Z,35.30
2018-10-12T12:12:55.375Z,25.20
2018-10-12T12:15:32.909Z,34.25
2018-10-12T12:18:12.070Z,30.50
2018-10-12T12:20:56.771Z,23.87
2018-10-12T12:23:38.889Z,26.73
2018-10-12T12:26:19.429Z,30.25
2018-10-12T12:29:01.856Z,26.93
2018-10-12T12:31:39.385Z,35.85
2018-10-12T12:34:26.870Z,35.25
2018-10-12T12:37:06.173Z,35.98
2018-10-12T12:39:44.872Z,33.92
2018-10-12T12:42:31.289Z,33.13
2018-10-12T12:45:11.851Z,23.35
2018-10-12T12:47:49.189Z,35.65
2018-10-12T12:50:36.811Z,32.67
2018-10-12T12:53:18.806Z,32.53
2018-10-12T12:55:58.389Z,33.60
2018-10-12T12:58:37.736Z,31.80
2018-10-12T13:01:15.170Z,29.18
2018-10-12T13:03:59.774Z,30.02
2018-10-12T13:06:49.890Z,28.27
2018-10-12T13:09:28.069Z,24.23
2018-10-12T13:12:10.633Z,26.30
2018-10-12T13:14:50.727Z,27.73
2018-10-12T13:17:31.110Z,23.87
2018-10-12T13:20:14.728Z,23.83
2018-10-12T13:22:53.849Z,23.77
2018-10-12T13:25:30.705Z,18.10
2018-10-12T13:28:12.265Z,22.82
2018-10-12T13:30:52.387Z,22.30
2018-10-12T13:33:32.830Z,23.85
2018-10-12T13:36:27.176Z,21.48
2018-10-12T13:39:05.306Z,17.55
2018-10-12T13:41:50.632Z,16.67
2018-10-12T13:44:32.153Z,23.90
2018-10-12T13:47:13.314Z,20.43
2018-10-12T13:49:57.231Z,24.77
2018-10-12T15:22:14.784Z,37.33
2018-10-12T15:24:52.150Z,39.77
2018-10-12T15:27:31.073Z,35.30
2018-10-12T15:30:09.907Z,33.97
2018-10-12T15:32:47.637Z,33.13
2018-10-12T15:35:25.769Z,30.63
2018-10-12T15:38:05.513Z,31.33
2018-10-12T15:40:44.846Z,30.60
2018-10-12T15:43:29.028Z,31.50
2018-10-12T15:46:09.469Z,33.40
2018-10-12T15:48:45.907Z,31.20
2018-10-12T15:51:24.119Z,32.53
2018-10-12T15:54:01.430Z,31.60
2018-10-12T15:56:39.649Z,34.07
2018-10-12T15:59:17.946Z,29.60
2018-10-12T16:01:57.866Z,24.70
2018-10-12T16:04:36.984Z,18.57
2018-10-12T16:07:18.264Z,17.33
2018-10-12T16:10:00.553Z,17.63
2018-10-12T16:12:41.330Z,19.83
2018-10-12T16:15:20.965Z,20.23
2018-10-12T16:17:59.511Z,22.47
2018-10-12T16:20:43.812Z,21.03
2018-10-12T16:23:28.072Z,18.63
2018-10-12T16:26:26.751Z,17.63
2018-10-12T16:29:07.535Z,18.60
2018-10-12T16:31:48.108Z,18.90
2018-10-12T16:34:28.907Z,16.83
2018-10-12T16:37:07.628Z,17.50
2018-10-12T16:39:47.886Z,35.53
2018-10-12T16:42:30.687Z,60.07
2018-10-12T16:45:11.903Z,131.30
2018-10-12T16:47:50.307Z,156.93
2018-10-12T16:50:28.008Z,120.20
2018-10-12T16:53:12.889Z,124.83
2018-10-12T16:55:58.672Z,132.20
2018-10-12T16:58:37.590Z,74.13
2018-10-12T17:01:17.165Z,26.30
2018-10-12T17:03:55.744Z,51.87
2018-10-12T17:06:37.630Z,114.40
2018-10-12T17:09:19.448Z,184.93
2018-10-12T17:11:59.889Z,256.00
2018-10-12T17:14:44.628Z,137.13
2018-10-12T17:17:24.245Z,27.97
2018-10-12T17:20:01.350Z,49.40
2018-10-12T17:22:40.754Z,42.93
2018-10-12T17:25:20.096Z,73.53
2018-10-12T17:27:59.932Z,426.03
2018-10-12T17:30:40.826Z,115.67
2018-10-12T17:33:24.086Z,46.10
2018-10-12T17:36:02.789Z,56.93
2018-10-12T17:38:43.443Z,82.90
2018-10-12T17:41:25.052Z,108.17
2018-10-12T17:44:04.945Z,265.53
2018-10-12T17:46:44.005Z,364.23
2018-10-12T17:49:26.154Z,295.27
2018-10-12T17:52:08.808Z,436.70
2018-10-12T17:54:47.549Z,453.33
2018-10-12T17:57:27.469Z,443.43
2018-10-12T18:00:07.245Z,386.97
2018-10-12T18:02:43.949Z,367.77
2018-10-12T18:05:25.951Z,282.87
2018-10-12T18:08:10.830Z,130.53
2018-10-12T18:10:48.289Z,122.63
2018-10-12T18:13:29.225Z,126.00
2018-10-12T18:16:16.014Z,120.77
2018-10-12T18:18:57.871Z,139.53
2018-10-12T18:21:34.794Z,267.93
2018-10-12T18:24:15.564Z,458.17
2018-10-12T18:26:55.045Z,584.73
2018-10-12T18:29:34.202Z,513.97
2018-10-12T18:32:11.991Z,719.63
2018-10-12T18:34:51.328Z,784.97
2018-10-12T18:37:30.086Z,817.00
2018-10-12T18:40:10.551Z,839.43
2018-10-12T18:42:50.589Z,880.20
2018-10-12T18:45:29.535Z,858.53
2018-10-12T18:48:10.964Z,808.40
2018-10-12T18:50:48.615Z,790.47
2018-10-12T18:53:28.206Z,879.83
2018-10-12T18:56:06.729Z,852.93
2018-10-12T18:58:47.068Z,986.60
2018-10-12T19:01:26.811Z,987.70
2018-10-12T19:04:05.047Z,1023.93
2018-10-12T19:06:44.733Z,1084.43
2018-10-12T19:09:21.805Z,1057.50
2018-10-12T19:11:58.768Z,1118.43
2018-10-12T19:14:35.835Z,1078.80
2018-10-12T19:17:13.263Z,1049.40
2018-10-12T19:19:50.872Z,1069.20
2018-10-12T19:22:29.811Z,1061.37
2018-10-12T19:25:10.628Z,1018.33
2018-10-12T19:27:51.369Z,1093.37
2018-10-12T19:30:31.583Z,1050.70
2018-10-12T19:33:12.085Z,1003.70
2018-10-12T19:35:54.444Z,979.73
2018-10-12T19:38:34.069Z,918.73
2018-10-12T19:41:13.406Z,927.10
2018-10-12T19:43:52.673Z,700.30
2018-10-12T19:46:30.867Z,848.43
2018-10-12T19:49:24.471Z,711.77
2018-10-12T19:52:05.148Z,709.20
2018-10-12T19:54:44.769Z,422.07
2018-10-12T19:57:25.829Z,443.17
2018-10-12T20:00:04.889Z,250.50
2018-10-12T20:02:44.226Z,182.33
2018-10-12T20:05:21.504Z,119.97
2018-10-12T20:08:00.486Z,102.53
2018-10-12T20:10:41.089Z,81.50
2018-10-12T20:13:20.166Z,72.80
2018-10-12T20:15:59.125Z,60.07
2018-10-12T20:18:40.730Z,58.40
2018-10-12T20:21:19.848Z,58.10
2018-10-12T20:24:00.275Z,59.73
2018-10-12T20:26:39.491Z,81.43
2018-10-12T20:29:39.077Z,82.33
2018-10-12T20:32:18.294Z,83.23
2018-10-12T20:34:56.688Z,96.10
2018-10-12T20:37:35.390Z,98.43
2018-10-12T20:40:15.650Z,123.20
2018-10-12T20:42:56.931Z,129.33
2018-10-12T20:45:37.643Z,125.23
2018-10-12T20:48:17.011Z,120.37
2018-10-12T20:50:54.144Z,126.00
2018-10-12T20:53:33.530Z,117.37
2018-10-12T20:56:12.228Z,116.30
2018-10-12T20:58:50.748Z,110.07
2018-10-12T21:01:29.248Z,110.20
2018-10-12T21:04:09.127Z,98.90
2018-10-12T21:06:49.489Z,78.27
2018-10-12T21:09:27.625Z,73.17
2018-10-12T21:12:07.372Z,54.90
2018-10-12T21:14:46.327Z,43.57
2018-10-12T21:17:26.465Z,47.77
2018-10-12T21:20:05.265Z,46.87
2018-10-12T21:22:44.766Z,47.40
2018-10-12T21:25:25.927Z,45.87
2018-10-12T21:28:04.697Z,48.93
2018-10-12T21:30:41.907Z,50.13
2018-10-12T21:33:19.730Z,47.87
2018-10-12T21:35:59.248Z,43.93
2018-10-12T21:38:37.865Z,43.87
